Time;durP1;ratioP1;P1;durP2;ratioP2;P2;SDS_P1;SDS_P2;PMS_P1;PMS_P2;Temp;Humidity;BMP_temperature;BMP_pressure;BME280_temperature;BME280_humidity;BME280_pressure;Samples;Min_cycle;Max_cycle;Signal;HPM_P1;HPM_P2
2023/07/07 00:00:27;;;;;;;9.13;4.90;;;;;;;18.52;50.31;101842.56;4973160;28;124679;-71
2023/07/07 00:02:54;;;;;;;9.55;5.32;;;;;;;18.51;50.41;101856.06;4984479;28;123745;-72
2023/07/07 00:05:22;;;;;;;7.82;4.97;;;;;;;18.49;50.70;101843.59;4959133;28;110328;-71
2023/07/07 00:07:49;;;;;;;9.40;5.32;;;;;;;18.46;50.52;101851.84;4966332;28;110350;-71
2023/07/07 00:10:17;;;;;;;10.18;5.50;;;;;;;18.44;50.60;101843.03;4965832;28;124436;-71
2023/07/07 00:12:45;;;;;;;8.18;5.35;;;;;;;18.41;50.67;101856.63;4953275;28;122690;-71
2023/07/07 00:15:13;;;;;;;9.50;5.47;;;;;;;18.40;50.79;101849.56;4965292;28;108604;-71
2023/07/07 00:17:42;;;;;;;8.40;5.28;;;;;;;18.40;50.85;101849.56;4973427;28;108310;-71
2023/07/07 00:20:11;;;;;;;10.55;5.70;;;;;;;18.40;50.95;101860.28;4985144;28;124493;-71
2023/07/07 00:22:39;;;;;;;9.07;5.50;;;;;;;18.37;50.86;101852.41;4972086;28;123670;-71
2023/07/07 00:25:08;;;;;;;10.32;6.22;;;;;;;18.36;50.99;101864.09;4972750;28;108787;-71
2023/07/07 00:27:37;;;;;;;10.32;5.38;;;;;;;18.35;50.95;101856.16;4969304;28;109010;-71
2023/07/07 00:30:05;;;;;;;11.32;6.10;;;;;;;18.32;50.91;101857.19;4961297;28;123333;-71
2023/07/07 00:32:33;;;;;;;10.13;5.82;;;;;;;18.29;50.91;101858.25;4973081;28;124687;-71
2023/07/07 00:35:02;;;;;;;7.07;5.88;;;;;;;18.26;51.08;101862.94;4971521;28;109441;-71
2023/07/07 00:37:30;;;;;;;12.68;6.97;;;;;;;18.24;50.96;101859.50;4974602;28;109129;-71
2023/07/07 00:39:58;;;;;;;13.70;7.00;;;;;;;18.24;51.01;101859.50;4964114;28;124352;-72
2023/07/07 00:42:25;;;;;;;9.38;6.80;;;;;;;18.22;50.75;101856.06;4970117;28;123689;-71
2023/07/07 00:45:09;;;;;;;10.02;6.78;;;;;;;18.22;50.87;101850.69;4972322;28;108530;-71
2023/07/07 00:47:54;;;;;;;10.88;6.55;;;;;;;18.20;50.93;101847.25;4972324;28;109144;-71
2023/07/07 00:50:23;;;;;;;;;;;;;;;18.17;50.21;101855.47;4962090;28;123851;-71
2023/07/07 00:52:50;;;;;;;12.73;7.70;;;;;;;18.15;50.58;101850.19;4972674;28;124198;-71
2023/07/07 00:55:24;;;;;;;10.52;7.00;;;;;;;18.14;50.76;101859.19;4973072;28;109358;-71
2023/07/07 00:57:54;;;;;;;12.00;7.22;;;;;;;18.12;50.70;101846.81;4972577;28;109053;-71
2023/07/07 01:00:22;;;;;;;10.60;6.78;;;;;;;18.12;50.68;101849.50;4967287;28;125503;-71
2023/07/07 01:02:54;;;;;;;11.52;7.03;;;;;;;18.11;50.83;101853.16;4979545;28;123480;-73
2023/07/07 01:05:26;;;;;;;12.85;6.32;;;;;;;18.09;50.83;101851.41;4983096;28;108268;-71
2023/07/07 01:07:59;;;;;;;10.25;6.20;;;;;;;18.08;50.91;101844.34;4976110;28;108128;-72
2023/07/07 01:10:26;;;;;;;10.55;5.97;;;;;;;18.11;50.94;101853.16;4975950;28;124071;-72
2023/07/07 01:12:53;;;;;;;8.05;6.30;;;;;;;18.11;50.94;101850.47;4974484;28;123921;-71
2023/07/07 01:15:25;;;;;;;11.82;6.35;;;;;;;18.11;51.05;101847.81;4987393;28;109279;-72
2023/07/07 01:18:15;;;;;;;10.65;6.03;;;;;;;18.11;50.79;101848.66;4976396;28;108360;-71
2023/07/07 01:20:46;;;;;;;10.93;6.43;;;;;;;18.12;50.75;101860.22;4974973;28;123888;-71
2023/07/07 01:23:42;;;;;;;9.35;5.85;;;;;;;18.13;50.69;101851.25;4946309;28;122900;-71
2023/07/07 01:26:22;;;;;;;16.20;6.18;;;;;;;18.14;50.61;101852.94;4984307;28;108142;-71
2023/07/07 01:29:25;;;;;;;10.85;5.68;;;;;;;18.13;50.68;101859.28;4975899;28;109353;-71
2023/07/07 01:32:07;;;;;;;11.95;5.85;;;;;;;18.11;50.61;101853.16;4963164;28;123176;-71
2023/07/07 01:34:35;;;;;;;12.23;6.30;;;;;;;18.10;50.41;101852.28;4973960;28;124071;-71
2023/07/07 01:37:06;;;;;;;15.90;6.47;;;;;;;18.08;50.47;101860.44;4963802;28;108141;-71
2023/07/07 01:39:35;;;;;;;12.65;6.63;;;;;;;18.08;50.69;101854.19;4958108;28;108981;-71
2023/07/07 01:42:15;;;;;;;11.05;6.70;;;;;;;18.06;50.67;101857.00;4961067;28;124436;-71
2023/07/07 01:45:03;;;;;;;18.35;6.45;;;;;;;18.04;50.72;101852.66;4973836;28;124921;-71
2023/07/07 01:47:36;;;;;;;14.63;6.20;;;;;;;18.00;50.63;101857.34;4963870;28;109533;-70
2023/07/07 01:50:17;;;;;;;13.23;6.45;;;;;;;17.95;50.53;101848.72;4972827;28;110133;-70
2023/07/07 01:52:51;;;;;;;10.32;5.72;;;;;;;17.91;50.64;101847.16;4968145;28;124137;-70
2023/07/07 01:55:30;;;;;;;7.70;6.13;;;;;;;17.87;50.58;101842.94;4964548;28;123998;-70
2023/07/07 01:58:02;;;;;;;11.77;6.70;;;;;;;17.82;50.54;101847.69;4971140;28;108250;-70
2023/07/07 02:00:31;;;;;;;11.68;6.18;;;;;;;17.79;50.34;101847.88;4975238;28;107823;-70
2023/07/07 02:02:59;;;;;;;13.50;6.18;;;;;;;17.75;50.60;101851.69;4957510;28;124046;-71
2023/07/07 02:05:27;;;;;;;10.88;5.90;;;;;;;17.69;50.46;101842.22;4966631;28;122736;-70
2023/07/07 02:07:58;;;;;;;11.18;5.80;;;;;;;17.65;50.45;101854.91;4973964;28;109251;-70
2023/07/07 02:10:25;;;;;;;11.13;6.13;;;;;;;17.60;50.40;101854.31;4973336;28;108939;-70
2023/07/07 02:12:52;;;;;;;13.98;6.10;;;;;;;17.57;50.57;101849.13;4961288;28;124040;-70
2023/07/07 02:15:20;;;;;;;11.75;5.50;;;;;;;17.54;50.58;101846.66;4973707;28;124043;-70
2023/07/07 02:17:48;;;;;;;11.05;5.93;;;;;;;17.50;50.70;101842.44;4973798;28;109383;-70
2023/07/07 02:20:16;;;;;;;9.23;6.20;;;;;;;17.47;50.84;101851.47;4975990;28;109612;-70
2023/07/07 02:22:44;;;;;;;12.82;5.85;;;;;;;17.44;50.68;101853.47;4984787;28;124194;-71
2023/07/07 02:25:11;;;;;;;10.30;6.40;;;;;;;17.40;50.55;101854.59;4976162;28;122929;-71
2023/07/07 02:27:39;;;;;;;9.85;5.88;;;;;;;17.32;50.79;101850.56;4986301;28;108385;-70
2023/07/07 02:30:08;;;;;;;8.50;5.38;;;;;;;17.26;50.86;101856.25;4976231;28;109320;-72
2023/07/07 02:32:35;;;;;;;11.05;5.90;;;;;;;17.21;50.75;101842.28;4971135;28;123825;-71
2023/07/07 02:35:03;;;;;;;8.15;5.47;;;;;;;17.17;50.98;101851.44;4962873;28;124741;-71
2023/07/07 02:37:33;;;;;;;7.05;5.45;;;;;;;17.13;50.96;101849.88;4974421;28;110104;-71
2023/07/07 02:40:00;;;;;;;8.55;5.50;;;;;;;17.10;51.11;101844.69;4976070;28;109831;-71
2023/07/07 02:42:28;;;;;;;9.30;5.32;;;;;;;17.07;51.13;101839.53;4973925;28;123986;-71
2023/07/07 02:44:55;;;;;;;6.40;5.30;;;;;;;17.04;51.09;101845.03;4964923;28;124153;-72
2023/07/07 02:47:22;;;;;;;8.27;5.38;;;;;;;16.99;51.05;101864.06;4975159;28;108466;-72
2023/07/07 02:49:49;;;;;;;7.68;5.03;;;;;;;16.95;51.11;101858.94;4974052;28;109098;-71
2023/07/07 02:52:17;;;;;;;8.43;5.60;;;;;;;16.91;51.28;101861.81;4961846;28;123185;-71
2023/07/07 02:54:46;;;;;;;6.47;4.53;;;;;;;16.88;51.28;101861.97;4972790;28;124791;-71
2023/07/07 02:57:14;;;;;;;7.07;5.57;;;;;;;16.85;51.45;101861.28;4974013;28;108477;-71
2023/07/07 02:59:41;;;;;;;8.23;6.03;;;;;;;16.82;51.81;101865.00;4987529;28;108105;-70
2023/07/07 03:02:08;;;;;;;9.13;5.75;;;;;;;16.80;51.79;101869.53;4971360;28;123700;-70
2023/07/07 03:04:35;;;;;;;8.65;5.72;;;;;;;16.79;51.90;101867.78;4986034;28;124145;-70
2023/07/07 03:07:04;;;;;;;7.82;5.53;;;;;;;16.76;51.85;101867.94;4966963;28;109255;-70
2023/07/07 03:09:31;;;;;;;8.38;5.50;;;;;;;16.73;51.87;101869.00;4965516;28;109434;-70
2023/07/07 03:12:00;;;;;;;7.13;5.13;;;;;;;16.72;51.96;101869.06;4960365;28;123203;-70
2023/07/07 03:14:30;;;;;;;8.52;5.32;;;;;;;16.69;51.97;101866.56;4972344;28;123068;-70
2023/07/07 03:16:58;;;;;;;8.85;5.03;;;;;;;16.67;51.95;101880.03;4972406;28;108284;-70
2023/07/07 03:19:33;;;;;;;8.00;5.03;;;;;;;16.64;51.88;101869.47;4975239;28;111609;-70
2023/07/07 03:22:11;;;;;;;8.48;5.22;;;;;;;16.62;51.90;101870.53;4970805;28;123268;-70
2023/07/07 03:24:44;;;;;;;7.57;5.30;;;;;;;16.59;51.86;101876.03;4970354;28;123570;-70
2023/07/07 03:27:21;;;;;;;9.60;5.75;;;;;;;16.55;52.02;101870.84;4959590;28;112406;-70
2023/07/07 03:29:50;;;;;;;10.32;5.90;;;;;;;16.51;51.81;101874.63;4966416;28;109607;-70
2023/07/07 03:32:20;;;;;;;9.20;5.90;;;;;;;16.48;52.19;101874.81;4955091;28;123588;-70
2023/07/07 03:34:51;;;;;;;7.72;5.53;;;;;;;16.45;52.21;101885.66;4964218;28;123259;-70
2023/07/07 03:37:22;;;;;;;6.68;5.05;;;;;;;16.43;52.16;101887.56;4959729;28;109454;-69
2023/07/07 03:39:49;;;;;;;11.00;5.20;;;;;;;16.42;52.29;101885.81;4972971;28;108129;-70
2023/07/07 03:42:17;;;;;;;8.63;5.70;;;;;;;16.41;52.48;101884.09;4972672;28;123223;-70
2023/07/07 03:44:44;;;;;;;9.52;5.85;;;;;;;16.42;52.49;101884.94;4969102;28;125402;-70
2023/07/07 03:47:11;;;;;;;10.45;5.80;;;;;;;16.42;52.57;101885.81;4964453;28;108546;-70
2023/07/07 03:49:39;;;;;;;7.85;5.68;;;;;;;16.42;52.51;101880.47;4970187;28;108674;-72
2023/07/07 03:52:08;;;;;;;8.63;5.80;;;;;;;16.42;52.61;101880.47;4966760;28;122954;-71
2023/07/07 03:54:36;;;;;;;7.93;5.18;;;;;;;16.42;52.58;101880.47;4975613;28;123001;-71
2023/07/07 03:57:12;;;;;;;7.22;4.97;;;;;;;16.41;52.75;101878.75;4973134;28;109125;-71
2023/07/07 03:59:39;;;;;;;8.30;5.50;;;;;;;16.42;52.60;101891.16;4956112;28;107831;-71
2023/07/07 04:02:07;;;;;;;7.97;5.55;;;;;;;16.42;52.58;101885.81;4966070;28;123305;-71
2023/07/07 04:04:34;;;;;;;7.53;5.30;;;;;;;16.42;52.63;101888.47;4971845;28;124512;-71
2023/07/07 04:07:02;;;;;;;7.90;5.25;;;;;;;16.41;52.75;101892.13;4974583;28;109670;-71
2023/07/07 04:09:29;;;;;;;8.85;5.57;;;;;;;16.39;52.93;101896.69;4986623;28;108192;-71
2023/07/07 04:11:56;;;;;;;10.77;5.85;;;;;;;16.37;53.08;101898.59;4953146;28;124706;-71
2023/07/07 04:14:28;;;;;;;9.43;5.57;;;;;;;16.36;53.25;101891.50;4952651;28;122778;-71
2023/07/07 04:16:56;;;;;;;8.57;5.50;;;;;;;16.37;53.27;101887.88;4960939;28;110042;-72
2023/07/07 04:19:23;;;;;;;11.25;5.65;;;;;;;16.39;53.23;101893.13;4958848;28;109598;-71
2023/07/07 04:21:52;;;;;;;11.27;5.78;;;;;;;16.39;53.38;101896.69;4963169;28;124161;-71
2023/07/07 04:24:23;;;;;;;8.88;5.90;;;;;;;16.41;53.41;101897.47;4973132;28;123929;-71
2023/07/07 04:26:51;;;;;;;8.65;5.70;;;;;;;16.43;53.63;101898.25;4974526;28;108871;-71
2023/07/07 04:29:19;;;;;;;14.70;5.93;;;;;;;16.44;53.71;101899.97;4969932;28;109613;-71
2023/07/07 04:31:47;;;;;;;8.93;5.70;;;;;;;16.45;53.87;101899.03;4968071;28;124208;-71
2023/07/07 04:34:16;;;;;;;9.30;5.78;;;;;;;16.47;54.05;101899.81;4985272;28;123801;-71
2023/07/07 04:36:46;;;;;;;10.30;5.70;;;;;;;16.52;54.33;101905.78;4975612;28;109123;-72
2023/07/07 04:39:13;;;;;;;11.32;6.68;;;;;;;16.58;54.35;101911.75;4978135;28;109206;-71
2023/07/07 04:41:40;;;;;;;14.57;6.47;;;;;;;16.62;54.43;101907.97;4976888;28;123910;-71
2023/07/07 04:44:08;;;;;;;12.23;7.03;;;;;;;16.65;54.53;101902.44;4974020;28;123760;-71
2023/07/07 04:46:37;;;;;;;11.23;6.63;;;;;;;16.66;54.60;101909.53;4972639;28;107949;-71
2023/07/07 04:49:07;;;;;;;11.93;6.45;;;;;;;16.66;54.70;101904.19;4967113;28;108948;-71
2023/07/07 04:51:36;;;;;;;13.32;6.40;;;;;;;16.67;54.93;101900.53;4968919;28;124103;-70
2023/07/07 04:54:04;;;;;;;8.85;6.15;;;;;;;16.72;55.18;101906.53;4981618;28;124334;-70
2023/07/07 04:56:33;;;;;;;9.30;6.00;;;;;;;16.79;55.51;101905.25;4975916;28;109099;-70
2023/07/07 04:59:02;;;;;;;10.95;6.20;;;;;;;16.91;55.95;101901.06;4976022;28;108805;-70
2023/07/07 05:01:30;;;;;;;9.45;6.45;;;;;;;17.05;55.96;101900.31;4964667;28;124145;-70
2023/07/07 05:04:00;;;;;;;9.13;6.00;;;;;;;17.17;55.95;101910.31;4972330;28;124632;-70
2023/07/07 05:06:31;;;;;;;9.23;6.07;;;;;;;17.34;55.93;101905.84;4974182;28;110382;-70
2023/07/07 05:09:00;;;;;;;8.95;5.35;;;;;;;17.48;55.69;101900.59;4975107;28;109826;-70
2023/07/07 05:11:30;;;;;;;10.48;6.00;;;;;;;17.62;55.67;101903.31;4975676;28;124108;-71
2023/07/07 05:14:00;;;;;;;8.02;5.60;;;;;;;17.75;55.65;101910.66;4973712;28;124362;-71
2023/07/07 05:16:32;;;;;;;8.15;6.10;;;;;;;17.87;55.47;101909.94;4976981;28;109556;-71
2023/07/07 05:19:01;;;;;;;9.52;6.07;;;;;;;17.98;55.12;101901.28;4977529;28;109727;-70
2023/07/07 05:21:28;;;;;;;11.95;6.70;;;;;;;18.07;55.24;101906.94;4976027;28;125195;-71
2023/07/07 05:23:57;;;;;;;10.25;6.47;;;;;;;18.18;55.00;101910.81;4973797;28;124080;-70
2023/07/07 05:26:27;;;;;;;10.45;6.97;;;;;;;18.26;55.00;101901.34;4975551;28;109216;-70
2023/07/07 05:29:03;;;;;;;8.93;6.90;;;;;;;18.36;54.98;101909.69;4975470;28;108306;-70
2023/07/07 05:31:31;;;;;;;11.13;7.38;;;;;;;18.46;54.88;101913.56;4963539;28;125030;-70
2023/07/07 05:33:58;;;;;;;9.35;6.82;;;;;;;18.55;54.81;101905.88;4972678;28;125625;-71
2023/07/07 05:36:26;;;;;;;10.38;7.13;;;;;;;18.65;54.93;101912.44;4973859;28;109211;-70
2023/07/07 05:38:53;;;;;;;10.73;8.32;;;;;;;18.75;55.10;101913.56;4975184;28;109256;-71
2023/07/07 05:41:20;;;;;;;10.75;7.35;;;;;;;18.86;54.99;101908.41;4982525;28;123862;-71
2023/07/07 05:43:48;;;;;;;11.15;7.90;;;;;;;18.99;54.93;101911.19;4955610;28;124737;-71
2023/07/07 05:46:16;;;;;;;10.73;7.90;;;;;;;19.11;55.01;101920.28;4966345;28;114361;-71
2023/07/07 05:48:44;;;;;;;13.02;8.20;;;;;;;19.22;54.88;101917.75;4964670;28;113314;-71
2023/07/07 05:51:14;;;;;;;9.93;7.60;;;;;;;19.37;55.00;101920.44;4953626;28;124257;-71
2023/07/07 05:53:43;;;;;;;12.45;7.57;;;;;;;19.48;54.83;101907.16;4962885;28;124237;-70
2023/07/07 05:56:15;;;;;;;11.15;8.13;;;;;;;19.60;54.51;101906.34;4969828;28;115269;-70
2023/07/07 05:58:42;;;;;;;12.25;8.00;;;;;;;19.73;54.41;101905.56;4962389;28;114984;-70
2023/07/07 06:01:13;;;;;;;10.93;8.02;;;;;;;19.85;54.33;101910.09;4956236;28;123786;-70
2023/07/07 06:03:43;;;;;;;14.02;8.20;;;;;;;19.97;54.21;101911.97;4962478;28;123901;-71
2023/07/07 06:06:11;;;;;;;11.35;7.57;;;;;;;20.09;53.95;101904.03;4964165;28;114749;-71
2023/07/07 06:08:40;;;;;;;12.95;7.97;;;;;;;20.20;53.85;101906.84;4979786;28;113904;-70
2023/07/07 06:11:07;;;;;;;11.00;7.82;;;;;;;20.31;53.73;101906.97;4979176;28;124479;-71
2023/07/07 06:13:35;;;;;;;10.02;7.95;;;;;;;20.40;53.19;101910.88;4971647;28;123988;-71
2023/07/07 06:16:02;;;;;;;10.65;7.32;;;;;;;20.50;52.63;101911.06;4971070;28;114649;-71
2023/07/07 06:18:29;;;;;;;12.32;7.78;;;;;;;20.60;52.70;101913.03;4953509;28;114626;-71
2023/07/07 06:20:59;;;;;;;11.98;7.20;;;;;;;20.73;52.43;101918.41;4965908;28;123914;-71
2023/07/07 06:23:30;;;;;;;10.27;7.25;;;;;;;20.87;52.22;101909.38;4969875;28;123704;-72
2023/07/07 06:25:57;;;;;;;15.32;7.18;;;;;;;21.03;52.02;101914.50;4970933;28;114470;-70
2023/07/07 06:28:25;;;;;;;8.38;6.63;;;;;;;21.18;51.81;101913.38;4980147;28;113985;-72
2023/07/07 06:30:52;;;;;;;8.73;6.85;;;;;;;21.36;51.68;101915.69;4975814;28;124522;-72
2023/07/07 06:33:21;;;;;;;9.85;6.95;;;;;;;21.51;51.38;101911.91;4961490;28;124262;-71
2023/07/07 06:35:49;;;;;;;9.95;6.93;;;;;;;21.69;50.98;101911.50;4969042;28;114680;-70
2023/07/07 06:38:16;;;;;;;8.73;6.40;;;;;;;21.85;50.61;101917.47;4962424;28;114159;-71
2023/07/07 06:40:46;;;;;;;11.68;6.63;;;;;;;22.03;50.18;101914.34;4960534;28;124036;-71
2023/07/07 06:43:17;;;;;;;12.70;6.53;;;;;;;22.22;50.31;101917.31;4970490;28;125167;-71
2023/07/07 06:45:55;;;;;;;10.88;6.25;;;;;;;22.41;49.82;101913.22;4976070;28;115529;-72
2023/07/07 06:48:22;;;;;;;8.85;5.90;;;;;;;22.60;49.55;101918.88;4979078;28;115435;-72
2023/07/07 06:50:50;;;;;;;9.38;5.97;;;;;;;22.80;49.00;101913.75;4966772;28;123917;-72
2023/07/07 06:53:18;;;;;;;9.50;5.57;;;;;;;22.98;48.66;101917.69;4963586;28;124016;-72
2023/07/07 06:55:46;;;;;;;8.15;5.03;;;;;;;23.19;48.20;101908.81;4970530;28;114833;-72
2023/07/07 06:58:15;;;;;;;8.05;5.45;;;;;;;23.38;48.10;101919.03;4959836;28;114326;-72
2023/07/07 07:00:43;;;;;;;8.38;5.38;;;;;;;23.56;47.61;101905.81;4968640;28;124499;-72
2023/07/07 07:03:11;;;;;;;6.88;5.20;;;;;;;23.75;47.68;101914.06;4958817;28;123681;-72
2023/07/07 07:05:40;;;;;;;8.35;5.22;;;;;;;23.95;47.57;101917.84;4961678;28;113060;-72
2023/07/07 07:08:07;;;;;;;9.07;5.65;;;;;;;24.16;47.59;101915.16;4956416;28;114024;-72
2023/07/07 07:10:34;;;;;;;8.27;5.18;;;;;;;24.37;46.71;101914.28;4958862;28;124005;-72
2023/07/07 07:13:02;;;;;;;8.10;5.47;;;;;;;24.56;46.44;101925.25;4971038;28;123915;-73
2023/07/07 07:15:30;;;;;;;7.00;5.03;;;;;;;24.74;45.91;101919.25;4972573;28;114156;-73
2023/07/07 07:17:57;;;;;;;7.40;5.60;;;;;;;24.90;45.57;101925.00;4970016;28;114758;-73
2023/07/07 07:20:24;;;;;;;7.95;5.90;;;;;;;25.09;45.42;101928.78;4971401;28;123867;-73
2023/07/07 07:22:51;;;;;;;7.55;5.30;;;;;;;25.28;45.42;101923.44;4972620;28;123788;-73
2023/07/07 07:25:19;;;;;;;7.60;4.40;;;;;;;25.45;44.75;101920.06;4979243;28;114637;-73
2023/07/07 07:27:46;;;;;;;7.32;5.30;;;;;;;25.62;44.50;101931.22;4984961;28;113141;-72
2023/07/07 07:30:15;;;;;;;8.70;5.55;;;;;;;25.77;44.10;101924.38;4973106;28;124448;-72
2023/07/07 07:32:42;;;;;;;7.45;5.13;;;;;;;25.91;43.79;101924.94;4970275;28;124129;-72
2023/07/07 07:35:11;;;;;;;7.60;5.00;;;;;;;26.03;43.51;101930.13;4970396;28;114369;-73
2023/07/07 07:37:39;;;;;;;8.00;4.57;;;;;;;26.19;43.04;101931.38;4969768;28;115213;-73
2023/07/07 07:40:07;;;;;;;6.60;4.68;;;;;;;26.30;42.35;101930.38;4984430;28;124092;-73
2023/07/07 07:42:35;;;;;;;6.80;4.80;;;;;;;26.36;42.86;101924.34;4970169;28;123943;-73
2023/07/07 07:45:02;;;;;;;6.45;4.65;;;;;;;26.44;42.51;101929.91;4969660;28;114506;-73
2023/07/07 07:47:29;;;;;;;7.18;4.80;;;;;;;26.56;42.53;101936.88;4981713;28;113576;-73
2023/07/07 07:49:58;;;;;;;7.90;4.57;;;;;;;26.69;42.41;101931.16;4958487;28;124101;-73
2023/07/07 07:52:25;;;;;;;7.75;4.70;;;;;;;26.82;42.00;101938.94;4970046;28;123912;-73
2023/07/07 07:54:52;;;;;;;6.75;4.40;;;;;;;26.91;42.14;101932.63;4971369;28;113135;-73
2023/07/07 07:57:19;;;;;;;6.55;4.15;;;;;;;27.02;41.60;101930.72;4981746;28;113734;-72
2023/07/07 07:59:47;;;;;;;7.13;4.00;;;;;;;27.13;41.38;101938.69;4969223;28;124065;-73
2023/07/07 08:02:14;;;;;;;9.45;4.97;;;;;;;27.24;40.92;101935.75;4970904;28;124692;-73
2023/07/07 08:04:42;;;;;;;8.77;3.67;;;;;;;27.37;41.47;101941.72;4968321;28;114280;-71
2023/07/07 08:07:09;;;;;;;8.35;3.65;;;;;;;27.48;40.79;101937.94;4976808;28;113403;-71
2023/07/07 08:09:36;;;;;;;6.85;3.88;;;;;;;27.57;40.59;101936.16;4955851;28;123914;-71
2023/07/07 08:12:04;;;;;;;5.93;3.80;;;;;;;27.63;40.39;101934.66;4958629;28;123784;-70
2023/07/07 08:14:32;;;;;;;6.60;3.47;;;;;;;27.67;40.24;101936.94;4969609;28;113725;-72
2023/07/07 08:17:11;;;;;;;5.55;3.40;;;;;;;27.71;40.82;101938.34;4960299;28;114231;-71
2023/07/07 08:19:40;;;;;;;5.05;3.92;;;;;;;27.84;40.08;101947.97;4963423;28;123795;-71
2023/07/07 08:22:21;;;;;;;7.40;4.13;;;;;;;27.93;40.23;101936.19;4969323;28;124280;-71
2023/07/07 08:24:50;;;;;;;4.55;2.75;;;;;;;28.04;39.71;101944.09;4973975;28;115648;-73
2023/07/07 08:27:19;;;;;;;7.75;2.85;;;;;;;28.17;39.72;101942.84;4977055;28;115226;-73
2023/07/07 08:29:49;;;;;;;6.07;2.75;;;;;;;28.26;39.01;101936.47;4959769;28;124923;-73
2023/07/07 08:32:21;;;;;;;5.05;2.67;;;;;;;28.32;38.42;101935.81;4964466;28;123759;-73
2023/07/07 08:34:50;;;;;;;4.90;2.63;;;;;;;28.38;38.01;101929.72;4969214;28;114749;-73
2023/07/07 08:37:25;;;;;;;3.90;2.50;;;;;;;28.43;37.59;101932.81;4969848;28;114098;-73
2023/07/07 08:39:52;;;;;;;4.15;2.78;;;;;;;28.48;37.68;101935.94;4970962;28;124300;-73
2023/07/07 08:42:32;;;;;;;4.63;2.45;;;;;;;28.51;37.32;101941.03;4974182;28;123596;-74
2023/07/07 08:45:05;;;;;;;4.78;2.60;;;;;;;28.58;37.71;101945.91;4956471;28;114556;-74
2023/07/07 08:47:44;;;;;;;4.50;3.08;;;;;;;28.68;38.22;101941.19;4970446;28;114669;-74
2023/07/07 08:50:36;;;;;;;8.70;2.50;;;;;;;28.78;37.45;101941.91;4967338;28;123860;-74
2023/07/07 08:53:32;;;;;;;5.15;2.50;;;;;;;28.87;37.82;101940.94;4967332;28;124319;-74
2023/07/07 08:56:02;;;;;;;3.08;2.17;;;;;;;29.00;37.41;101942.38;4983874;28;114221;-74
2023/07/07 08:58:43;;;;;;;3.75;2.40;;;;;;;29.10;36.37;101934.91;4981375;28;114617;-75
2023/07/07 09:01:30;;;;;;;4.43;1.95;;;;;;;29.21;36.38;101936.50;4971185;28;124499;-74
2023/07/07 09:04:10;;;;;;;3.35;2.30;;;;;;;29.29;36.90;101929.22;4970650;28;124577;-73
2023/07/07 09:06:47;;;;;;;3.72;1.90;;;;;;;29.39;36.16;101933.69;4982996;28;113666;-73
2023/07/07 09:09:43;;;;;;;5.25;2.50;;;;;;;29.42;36.22;101931.47;4981373;28;113133;-73
2023/07/07 09:12:16;;;;;;;2.72;1.70;;;;;;;29.46;36.01;101935.56;4948610;28;124461;-73
2023/07/07 09:14:47;;;;;;;4.68;2.10;;;;;;;29.55;36.00;101936.44;4951221;28;124321;-73
2023/07/07 09:17:33;;;;;;;3.28;2.10;;;;;;;29.67;35.33;101940.56;4970885;28;115746;-73
2023/07/07 09:20:04;;;;;;;3.75;1.73;;;;;;;29.74;35.45;101942.63;4971972;28;115102;-73
2023/07/07 09:22:40;;;;;;;3.67;1.90;;;;;;;29.81;34.52;101938.22;4971011;28;124221;-73
2023/07/07 09:25:26;;;;;;;3.53;2.08;;;;;;;29.84;34.20;101932.41;4971711;28;123967;-74
2023/07/07 09:28:17;;;;;;;3.83;2.15;;;;;;;29.93;35.09;101923.19;4959895;28;114692;-74
2023/07/07 09:31:09;;;;;;;4.20;1.77;;;;;;;30.03;34.42;101921.13;4973871;28;112924;-74
2023/07/07 09:33:36;;;;;;;3.70;2.30;;;;;;;30.09;34.00;101925.06;4971601;28;124200;-74
2023/07/07 09:36:15;;;;;;;3.17;1.90;;;;;;;30.14;33.56;101927.28;4972273;28;124499;-73
2023/07/07 09:39:07;;;;;;;2.80;1.85;;;;;;;30.19;33.17;101925.72;4972398;28;114573;-73
2023/07/07 09:42:12;;;;;;;4.45;2.00;;;;;;;30.20;33.03;101921.13;4973692;28;113755;-74
2023/07/07 09:45:03;;;;;;;3.13;2.10;;;;;;;30.19;32.78;101924.88;4974473;28;124509;-74
2023/07/07 09:47:36;;;;;;;3.45;1.75;;;;;;;30.22;33.27;101919.09;4960773;28;122894;-74
2023/07/07 09:50:37;;;;;;;3.55;2.00;;;;;;;30.29;33.44;101920.09;4972653;28;115091;-74
2023/07/07 09:53:31;;;;;;;2.83;1.90;;;;;;;30.34;32.32;101917.72;4982123;28;113251;-73
2023/07/07 09:56:25;;;;;;;3.42;2.20;;;;;;;30.35;32.20;101911.22;4965432;28;124632;-74
2023/07/07 09:59:10;;;;;;;3.53;1.80;;;;;;;30.34;31.90;101917.72;4953594;28;123781;-74
2023/07/07 10:01:44;;;;;;;2.30;1.52;;;;;;;30.34;31.99;101911.41;4972138;28;114709;-75
2023/07/07 10:04:15;;;;;;;2.85;1.50;;;;;;;30.35;31.59;101913.97;4974866;28;113812;-74
2023/07/07 10:06:55;;;;;;;3.17;1.55;;;;;;;30.37;31.42;101909.19;4975209;28;123987;-74
2023/07/07 10:09:23;;;;;;;4.30;1.67;;;;;;;30.42;31.45;101904.06;4972038;28;124307;-74
2023/07/07 10:11:52;;;;;;;2.95;1.88;;;;;;;30.47;31.03;101906.25;4959479;28;114223;-74
2023/07/07 10:14:41;;;;;;;3.20;1.75;;;;;;;30.54;31.88;101907.25;4970274;28;114933;-74
2023/07/07 10:17:09;;;;;;;5.50;2.03;;;;;;;30.63;31.41;101900.75;4963334;28;123906;-74
2023/07/07 10:19:43;;;;;;;4.70;2.25;;;;;;;30.73;30.85;101900.53;4954784;28;124015;-74
2023/07/07 10:22:14;;;;;;;3.63;2.20;;;;;;;30.82;31.16;101904.94;4973486;28;112998;-74
2023/07/07 10:24:42;;;;;;;5.75;2.20;;;;;;;30.91;30.97;101899.47;4973163;28;114149;-74
2023/07/07 10:27:17;;;;;;;3.70;2.03;;;;;;;30.95;30.89;101892.59;4973669;28;124648;-74
2023/07/07 10:29:45;;;;;;;4.85;2.45;;;;;;;30.99;31.16;101900.28;4965409;28;124292;-73
2023/07/07 10:32:21;;;;;;;5.05;2.38;;;;;;;31.03;30.83;101895.31;4967377;28;114566;-74
2023/07/07 10:34:53;;;;;;;4.57;2.40;;;;;;;31.08;30.50;101898.38;4954267;28;114337;-74
2023/07/07 10:37:28;;;;;;;3.75;2.10;;;;;;;31.11;30.16;101887.03;4953812;28;123826;-74
2023/07/07 10:39:58;;;;;;;2.97;1.90;;;;;;;31.13;30.49;101890.44;4953078;28;124550;-74
2023/07/07 10:42:29;;;;;;;3.95;2.15;;;;;;;31.17;29.32;101891.78;4960356;28;114268;-74
2023/07/07 10:44:59;;;;;;;4.20;1.90;;;;;;;31.16;29.42;101884.63;4968400;28;113972;-74
2023/07/07 10:47:32;;;;;;;3.05;1.92;;;;;;;31.14;28.52;101881.22;4971019;28;124051;-74
2023/07/07 10:50:10;;;;;;;4.65;2.40;;;;;;;31.11;29.34;101892.50;4971937;28;124082;-74
2023/07/07 10:52:40;;;;;;;5.63;1.80;;;;;;;31.16;28.94;101895.56;4984375;28;113939;-73
2023/07/07 10:55:30;;;;;;;5.07;2.20;;;;;;;31.19;29.02;101884.28;4990063;28;114193;-74
2023/07/07 10:58:37;;;;;;;6.57;2.30;;;;;;;31.23;29.20;101882.88;4975058;28;124089;-73
2023/07/07 11:01:21;;;;;;;3.45;1.92;;;;;;;31.28;29.45;101885.06;4975156;28;123999;-73
2023/07/07 11:04:36;;;;;;;3.53;1.90;;;;;;;31.33;29.16;101879.06;4969146;28;115546;-74
2023/07/07 11:07:20;;;;;;;;;;;;;;;31.39;30.48;101873.69;4945759;28;114657;-74
2023/07/07 11:09:54;;;;;;;3.40;2.10;;;;;;;31.52;29.08;101873.13;4966769;28;124524;-74
2023/07/07 11:12:42;;;;;;;3.25;2.00;;;;;;;31.58;29.57;101872.38;4969777;28;123741;-74
2023/07/07 11:15:38;;;;;;;3.70;2.08;;;;;;;31.71;29.54;101876.41;4971039;28;114604;-74
2023/07/07 11:18:24;;;;;;;4.47;2.20;;;;;;;31.85;29.02;101867.38;4970647;28;113869;-74
2023/07/07 11:21:06;;;;;;;3.70;1.95;;;;;;;31.92;27.99;101868.34;4985431;28;124186;-74
2023/07/07 11:24:05;;;;;;;3.38;2.10;;;;;;;31.94;28.30;101866.25;4962993;28;123951;-74
2023/07/07 11:26:53;;;;;;;3.00;2.10;;;;;;;31.93;27.38;101864.56;4958996;28;114084;-73
2023/07/07 11:29:29;;;;;;;4.40;2.10;;;;;;;31.92;28.03;101860.09;4986991;28;114005;-74
2023/07/07 11:32:03;;;;;;;3.67;2.30;;;;;;;31.92;27.23;101867.50;4979523;28;123032;-73
2023/07/07 11:34:39;;;;;;;3.30;2.22;;;;;;;31.87;28.17;101865.28;4971061;28;123406;-73
2023/07/07 11:37:30;;;;;;;2.53;1.92;;;;;;;31.92;28.22;101862.00;4971161;28;114374;-74